Time;durP1;ratioP1;P1;durP2;ratioP2;P2;SDS_P1;SDS_P2;PMS_P1;PMS_P2;Temp;Humidity;BMP_temperature;BMP_pressure;BME280_temperature;BME280_humidity;BME280_pressure;Samples;Min_cycle;Max_cycle;Signal;HPM_P1;HPM_P2
2021/12/13 00:02:30;;;;;;;1.50;0.80;;;;;;;;;;5051149;28;20420;-78
2021/12/13 00:04:56;;;;;;;1.70;1.10;;;;;;;;;;5051032;28;20469;-77
2021/12/13 00:07:25;;;;;;;1.30;0.70;;;;;;;;;;5051181;28;20899;-78
2021/12/13 00:09:53;;;;;;;1.50;0.90;;;;;;;;;;5050759;28;20248;-78
2021/12/13 00:12:24;;;;;;;1.20;0.70;;;;;;;;;;5051058;28;20411;-78
2021/12/13 00:14:52;;;;;;;2.10;0.77;;;;;;;;;;5051026;28;20439;-78
2021/12/13 00:17:21;;;;;;;1.30;0.80;;;;;;;;;;5033283;28;20416;-78
2021/12/13 00:19:52;;;;;;;1.27;0.93;;;;;;;;;;5050913;28;20895;-78
2021/12/13 00:22:20;;;;;;;1.97;0.90;;;;;;;;;;5054881;28;20399;-78
2021/12/13 00:24:48;;;;;;;6.03;1.20;;;;;;;;;;5054653;28;20442;-78
2021/12/13 00:27:23;;;;;;;1.37;0.90;;;;;;;;;;5054864;28;20431;-77
2021/12/13 00:29:55;;;;;;;1.23;0.73;;;;;;;;;;5054507;28;20488;-77
2021/12/13 00:32:23;;;;;;;1.23;0.90;;;;;;;;;;5054679;28;20779;-78
2021/12/13 00:34:54;;;;;;;1.40;0.90;;;;;;;;;;5054581;28;20416;-78
2021/12/13 00:37:25;;;;;;;1.87;0.90;;;;;;;;;;5054575;28;20403;-78
2021/12/13 00:39:54;;;;;;;2.00;0.97;;;;;;;;;;5053940;28;20458;-78
2021/12/13 00:42:23;;;;;;;1.97;0.90;;;;;;;;;;5036678;28;20415;-78
2021/12/13 00:44:52;;;;;;;1.40;1.00;;;;;;;;;;5036528;28;20420;-78
2021/12/13 00:47:23;;;;;;;1.57;0.93;;;;;;;;;;5036630;28;20511;-78
2021/12/13 00:49:53;;;;;;;2.47;1.10;;;;;;;;;;5054010;28;20404;-78
2021/12/13 00:52:19;;;;;;;1.50;0.93;;;;;;;;;;5054586;28;20549;-78
2021/12/13 00:54:46;;;;;;;1.93;1.00;;;;;;;;;;5036265;28;20477;-78
2021/12/13 00:57:31;;;;;;;1.30;0.90;;;;;;;;;;5054195;28;20910;-78
2021/12/13 01:00:04;;;;;;;2.10;1.43;;;;;;;;;;5053824;28;20415;-78
2021/12/13 01:02:39;;;;;;;1.40;0.90;;;;;;;;;;5054251;28;20404;-78
2021/12/13 01:05:10;;;;;;;1.30;0.83;;;;;;;;;;5053893;28;20835;-78
2021/12/13 01:07:48;;;;;;;1.73;0.70;;;;;;;;;;5054268;28;20549;-77
2021/12/13 01:10:32;;;;;;;1.80;1.00;;;;;;;;;;5053846;28;20411;-77
2021/12/13 01:12:59;;;;;;;1.73;0.97;;;;;;;;;;5053925;28;20412;-77
2021/12/13 01:15:33;;;;;;;1.27;0.80;;;;;;;;;;5035838;28;20494;-77
2021/12/13 01:21:00;;;;;;;1.40;0.97;;;;;;;;;;5053706;28;20490;-78
2021/12/13 01:23:40;;;;;;;1.80;1.20;;;;;;;;;;5053776;28;20419;-78
2021/12/13 01:26:27;;;;;;;2.30;1.27;;;;;;;;;;5035815;28;20984;-78
2021/12/13 01:28:58;;;;;;;1.47;1.17;;;;;;;;;;5053680;28;20411;-78
2021/12/13 01:31:31;;;;;;;2.00;1.17;;;;;;;;;;5052782;28;20408;-76
2021/12/13 01:33:58;;;;;;;1.90;0.97;;;;;;;;;;5053458;28;20795;-76
2021/12/13 01:36:28;;;;;;;1.70;1.10;;;;;;;;;;5053396;28;20429;-76
2021/12/13 01:38:57;;;;;;;1.30;0.83;;;;;;;;;;5053426;28;20415;-76
2021/12/13 01:41:26;;;;;;;1.93;1.20;;;;;;;;;;5035146;28;20460;-76
2021/12/13 01:43:54;;;;;;;1.33;0.97;;;;;;;;;;5053277;28;20455;-76
2021/12/13 01:46:21;;;;;;;1.57;1.10;;;;;;;;;;5053399;28;20431;-76
2021/12/13 01:48:48;;;;;;;2.20;1.00;;;;;;;;;;5054554;28;20431;-79
2021/12/13 01:51:16;;;;;;;1.80;1.10;;;;;;;;;;5035721;28;20461;-79
2021/12/13 01:53:44;;;;;;;1.87;0.93;;;;;;;;;;5035943;28;20415;-79
2021/12/13 01:56:35;;;;;;;1.93;1.00;;;;;;;;;;5053388;28;20435;-79
2021/12/13 01:59:05;;;;;;;1.70;0.90;;;;;;;;;;5053369;28;20502;-79
2021/12/13 02:01:31;;;;;;;1.83;1.10;;;;;;;;;;5053078;28;20455;-79
2021/12/13 02:04:02;;;;;;;1.90;1.30;;;;;;;;;;5053059;28;20411;-78
2021/12/13 02:06:40;;;;;;;5.50;1.17;;;;;;;;;;5052987;28;20439;-78
2021/12/13 02:09:26;;;;;;;1.80;0.97;;;;;;;;;;5035211;28;20438;-78
2021/12/13 02:11:54;;;;;;;2.10;1.20;;;;;;;;;;5034997;28;20767;-78
2021/12/13 02:14:21;;;;;;;1.57;1.00;;;;;;;;;;5052699;28;20411;-78
2021/12/13 02:17:17;;;;;;;1.90;1.00;;;;;;;;;;5052993;28;20461;-78
2021/12/13 02:19:54;;;;;;;1.33;0.93;;;;;;;;;;5051904;28;20540;-78
2021/12/13 02:22:27;;;;;;;1.60;1.00;;;;;;;;;;5052814;28;20404;-78
2021/12/13 02:24:55;;;;;;;2.10;1.10;;;;;;;;;;5052484;28;20426;-78
2021/12/13 02:27:24;;;;;;;1.30;0.90;;;;;;;;;;5034861;28;20419;-79
2021/12/13 02:29:51;;;;;;;1.87;1.10;;;;;;;;;;5052365;28;20410;-79
2021/12/13 02:32:17;;;;;;;1.50;0.87;;;;;;;;;;5034829;28;20444;-79
2021/12/13 02:34:43;;;;;;;1.53;1.00;;;;;;;;;;5034582;28;20520;-79
2021/12/13 02:37:10;;;;;;;1.37;0.67;;;;;;;;;;5052435;28;20407;-79
2021/12/13 02:39:39;;;;;;;1.70;1.00;;;;;;;;;;5052115;28;20427;-79
2021/12/13 02:42:06;;;;;;;1.53;1.00;;;;;;;;;;5052199;28;20459;-79
2021/12/13 02:44:38;;;;;;;1.80;1.17;;;;;;;;;;5051314;28;20424;-79
2021/12/13 02:47:15;;;;;;;1.30;0.90;;;;;;;;;;5052326;28;20411;-79
2021/12/13 02:49:41;;;;;;;1.60;1.00;;;;;;;;;;5051775;28;20453;-79
2021/12/13 02:52:09;;;;;;;1.33;1.00;;;;;;;;;;5052412;28;20490;-79
2021/12/13 02:54:38;;;;;;;1.97;1.03;;;;;;;;;;5034081;28;20439;-78
2021/12/13 02:57:27;;;;;;;1.37;0.93;;;;;;;;;;5051873;28;20408;-78
2021/12/13 02:59:59;;;;;;;1.70;0.90;;;;;;;;;;5051637;28;20487;-78
2021/12/13 03:02:29;;;;;;;2.63;1.20;;;;;;;;;;5034119;28;20532;-78
2021/12/13 03:04:56;;;;;;;1.60;1.10;;;;;;;;;;5051617;28;20733;-78
2021/12/13 03:07:25;;;;;;;1.43;1.00;;;;;;;;;;5033852;28;20424;-78
2021/12/13 03:09:53;;;;;;;1.33;0.87;;;;;;;;;;5033510;28;20775;-78
2021/12/13 03:12:19;;;;;;;2.10;1.20;;;;;;;;;;5051738;28;20407;-78
2021/12/13 03:14:50;;;;;;;2.00;1.10;;;;;;;;;;5033501;28;20484;-78
2021/12/13 03:17:19;;;;;;;1.37;0.97;;;;;;;;;;5051572;28;20422;-78
2021/12/13 03:19:57;;;;;;;2.10;1.00;;;;;;;;;;5051245;28;20406;-78
2021/12/13 03:22:42;;;;;;;1.97;1.00;;;;;;;;;;5051574;28;20439;-78
2021/12/13 03:25:12;;;;;;;2.10;1.13;;;;;;;;;;5051449;28;20442;-78
2021/12/13 03:27:50;;;;;;;1.30;0.93;;;;;;;;;;5052551;28;20422;-78
2021/12/13 03:30:21;;;;;;;1.40;1.03;;;;;;;;;;5051558;28;20415;-78
2021/12/13 03:32:50;;;;;;;1.47;1.00;;;;;;;;;;5051675;28;20872;-78
2021/12/13 03:35:18;;;;;;;1.20;0.80;;;;;;;;;;5051478;28;20459;-78
2021/12/13 03:37:45;;;;;;;1.40;0.90;;;;;;;;;;5051437;28;20407;-78
2021/12/13 03:40:20;;;;;;;1.90;0.80;;;;;;;;;;5051196;28;20508;-78
2021/12/13 03:42:49;;;;;;;1.33;1.00;;;;;;;;;;5051344;28;20557;-78
2021/12/13 03:45:19;;;;;;;1.70;0.80;;;;;;;;;;5051105;28;20898;-78
2021/12/13 03:47:50;;;;;;;1.40;0.83;;;;;;;;;;5051431;28;20396;-78
2021/12/13 03:50:18;;;;;;;2.00;1.20;;;;;;;;;;5051161;28;20407;-78
2021/12/13 03:52:45;;;;;;;1.73;1.10;;;;;;;;;;5051289;28;20407;-78
2021/12/13 03:55:12;;;;;;;1.77;1.20;;;;;;;;;;5052064;28;20428;-78
2021/12/13 03:57:42;;;;;;;1.43;1.00;;;;;;;;;;5055648;28;20411;-78
2021/12/13 04:00:08;;;;;;;1.07;0.70;;;;;;;;;;5054998;28;20459;-78
2021/12/13 04:02:37;;;;;;;1.13;0.90;;;;;;;;;;5055376;28;20403;-78
2021/12/13 04:05:06;;;;;;;1.50;0.83;;;;;;;;;;5055022;28;20803;-78
2021/12/13 04:07:37;;;;;;;1.50;1.03;;;;;;;;;;5055288;28;20444;-78
2021/12/13 04:10:09;;;;;;;1.37;0.90;;;;;;;;;;5054795;28;20426;-78
2021/12/13 04:12:43;;;;;;;1.33;0.97;;;;;;;;;;5037336;28;20412;-78
2021/12/13 04:15:16;;;;;;;2.37;1.07;;;;;;;;;;5056656;28;20429;-78
2021/12/13 04:17:59;;;;;;;2.60;1.07;;;;;;;;;;5056553;28;20526;-78
2021/12/13 04:20:27;;;;;;;1.80;1.07;;;;;;;;;;5054533;28;20821;-78
2021/12/13 04:22:54;;;;;;;2.00;1.10;;;;;;;;;;5054850;28;20414;-77
2021/12/13 04:25:23;;;;;;;1.57;1.10;;;;;;;;;;5100414;22;20856;-83
2021/12/13 04:28:00;;;;;;;1.77;1.07;;;;;;;;;;5079320;28;20418;-83
2021/12/13 04:30:29;;;;;;;3.30;1.20;;;;;;;;;;5079488;28;20420;-83
2021/12/13 04:33:00;;;;;;;1.80;1.10;;;;;;;;;;5079153;28;20401;-83
2021/12/13 04:35:27;;;;;;;1.60;1.07;;;;;;;;;;5076895;28;20431;-85
2021/12/13 04:37:54;;;;;;;1.53;1.00;;;;;;;;;;5094931;28;20417;-83
2021/12/13 04:40:25;;;;;;;1.50;0.80;;;;;;;;;;5095095;28;20462;-85
2021/12/13 04:43:11;;;;;;;2.03;1.10;;;;;;;;;;5094863;28;20452;-83
2021/12/13 04:45:40;;;;;;;1.43;0.90;;;;;;;;;;5079365;28;20442;-83
2021/12/13 04:48:09;;;;;;;1.30;0.90;;;;;;;;;;5079401;28;20395;-84
2021/12/13 04:50:39;;;;;;;1.43;0.97;;;;;;;;;;5094381;28;20449;-83
2021/12/13 04:53:06;;;;;;;1.20;0.70;;;;;;;;;;5078548;28;20410;-83
2021/12/13 04:55:37;;;;;;;1.27;0.80;;;;;;;;;;5093808;28;20426;-83
2021/12/13 04:58:04;;;;;;;1.83;1.17;;;;;;;;;;5078970;28;20439;-83
2021/12/13 05:00:32;;;;;;;2.90;1.10;;;;;;;;;;5078238;28;20461;-82
2021/12/13 05:03:01;;;;;;;1.20;0.90;;;;;;;;;;5094434;28;20422;-83
2021/12/13 05:05:28;;;;;;;1.60;0.80;;;;;;;;;;5093683;28;20427;-83
2021/12/13 05:07:54;;;;;;;1.53;0.83;;;;;;;;;;5093030;28;20415;-82
2021/12/13 05:10:25;;;;;;;1.47;0.90;;;;;;;;;;5078269;28;20411;-83
2021/12/13 05:13:02;;;;;;;1.33;0.73;;;;;;;;;;5079233;28;20397;-84
2021/12/13 05:15:28;;;;;;;1.67;1.07;;;;;;;;;;5093451;28;20490;-82
2021/12/13 05:17:55;;;;;;;1.30;0.80;;;;;;;;;;5079114;28;20407;-83
2021/12/13 05:20:40;;;;;;;1.10;0.70;;;;;;;;;;5078176;28;20877;-82
2021/12/13 05:23:07;;;;;;;2.53;1.10;;;;;;;;;;5095104;28;20411;-83
2021/12/13 05:25:42;;;;;;;1.40;0.90;;;;;;;;;;5093834;28;20446;-84
2021/12/13 05:28:15;;;;;;;1.30;0.80;;;;;;;;;;5094363;28;20410;-84
2021/12/13 05:30:50;;;;;;;1.30;0.90;;;;;;;;;;5091558;28;20403;-85
2021/12/13 05:33:17;;;;;;;1.20;0.73;;;;;;;;;;5092788;28;20442;-85
2021/12/13 05:35:45;;;;;;;1.23;0.80;;;;;;;;;;5092045;28;20489;-83
2021/12/13 05:38:22;;;;;;;4.70;1.10;;;;;;;;;;5091462;28;20415;-84
2021/12/13 05:40:49;;;;;;;1.10;0.73;;;;;;;;;;5076797;28;20438;-83
2021/12/13 05:43:19;;;;;;;1.37;0.77;;;;;;;;;;5091726;28;20496;-84
2021/12/13 05:45:48;;;;;;;1.50;0.90;;;;;;;;;;5078175;28;20407;-83
2021/12/13 05:48:20;;;;;;;1.63;0.90;;;;;;;;;;5093513;28;20442;-83
2021/12/13 05:50:52;;;;;;;2.50;1.30;;;;;;;;;;5093406;28;20497;-83
2021/12/13 05:53:24;;;;;;;2.00;1.10;;;;;;;;;;5075401;28;20418;-82
2021/12/13 05:55:50;;;;;;;2.30;1.20;;;;;;;;;;5055166;28;20510;-82
2021/12/13 05:58:28;;;;;;;2.90;1.90;;;;;;;;;;5070931;28;20443;-81
2021/12/13 06:00:57;;;;;;;3.03;1.83;;;;;;;;;;5066846;28;20208;-83
2021/12/13 06:03:30;;;;;;;2.63;1.87;;;;;;;;;;5076398;28;20427;-82
2021/12/13 06:06:03;;;;;;;4.33;2.43;;;;;;;;;;5091409;28;20413;-82
2021/12/13 06:08:33;;;;;;;3.50;2.27;;;;;;;;;;5075153;28;20449;-84
2021/12/13 06:11:01;;;;;;;2.37;1.33;;;;;;;;;;5074624;28;20426;-83
2021/12/13 06:13:43;;;;;;;21.53;2.00;;;;;;;;;;5073521;28;20429;-83
2021/12/13 06:16:10;;;;;;;4.60;2.23;;;;;;;;;;5075516;28;20450;-83
2021/12/13 06:18:41;;;;;;;3.30;1.53;;;;;;;;;;5086279;28;20516;-82
2021/12/13 06:21:22;;;;;;;2.07;1.37;;;;;;;;;;5064742;28;20493;-83
2021/12/13 06:23:49;;;;;;;3.67;2.27;;;;;;;;;;5074874;28;20487;-82
2021/12/13 06:26:15;;;;;;;4.53;2.13;;;;;;;;;;5091197;28;20410;-84
2021/12/13 06:28:43;;;;;;;3.67;2.40;;;;;;;;;;5072567;28;20414;-83
2021/12/13 06:31:14;;;;;;;7.00;2.30;;;;;;;;;;5072860;28;20407;-84
2021/12/13 06:33:49;;;;;;;3.63;2.37;;;;;;;;;;5072097;28;20427;-82
2021/12/13 06:36:22;;;;;;;5.20;2.77;;;;;;;;;;5072443;28;20403;-83
2021/12/13 06:38:51;;;;;;;5.10;2.20;;;;;;;;;;5071434;28;20909;-84
2021/12/13 06:41:31;;;;;;;4.70;2.47;;;;;;;;;;5075637;28;20470;-86
2021/12/13 06:44:03;;;;;;;2.90;1.90;;;;;;;;;;5077841;28;20418;-84
2021/12/13 06:46:31;;;;;;;7.67;1.97;;;;;;;;;;5076820;28;20472;-84
2021/12/13 06:49:00;;;;;;;3.00;1.97;;;;;;;;;;5073418;28;20415;-86
2021/12/13 06:51:38;;;;;;;4.40;2.20;;;;;;;;;;5072117;28;20926;-84
2021/12/13 06:54:09;;;;;;;5.37;2.60;;;;;;;;;;5072661;28;20442;-84
2021/12/13 06:56:36;;;;;;;7.83;3.77;;;;;;;;;;5076114;28;20411;-84
2021/12/13 06:59:03;;;;;;;7.40;4.10;;;;;;;;;;5078915;28;20822;-86
2021/12/13 07:01:32;;;;;;;10.43;4.53;;;;;;;;;;5079789;28;20548;-83
2021/12/13 07:04:00;;;;;;;10.07;5.07;;;;;;;;;;5079206;28;20442;-83
2021/12/13 07:06:26;;;;;;;9.60;5.27;;;;;;;;;;5074842;28;20537;-83
2021/12/13 07:09:05;;;;;;;7.97;4.87;;;;;;;;;;5074729;28;20407;-83
2021/12/13 07:11:40;;;;;;;9.07;5.20;;;;;;;;;;5074207;28;20971;-83
2021/12/13 07:14:09;;;;;;;9.70;5.50;;;;;;;;;;5075030;28;20487;-83
2021/12/13 07:16:41;;;;;;;11.93;5.87;;;;;;;;;;5076293;28;20758;-83
2021/12/13 07:19:18;;;;;;;12.43;6.00;;;;;;;;;;5076039;28;20403;-83
2021/12/13 07:21:47;;;;;;;9.40;4.40;;;;;;;;;;5074736;28;20458;-84
2021/12/13 07:24:15;;;;;;;7.97;4.27;;;;;;;;;;5073665;28;20447;-83
2021/12/13 07:26:42;;;;;;;12.50;6.93;;;;;;;;;;5071512;28;20413;-82
2021/12/13 07:29:10;;;;;;;11.23;5.93;;;;;;;;;;5073613;28;20407;-83
2021/12/13 07:31:36;;;;;;;19.43;5.83;;;;;;;;;;5071888;28;20842;-82
2021/12/13 07:34:19;;;;;;;6.07;3.93;;;;;;;;;;5072480;28;20922;-82
2021/12/13 07:36:52;;;;;;;13.00;4.57;;;;;;;;;;5072682;28;20411;-84
2021/12/13 07:39:19;;;;;;;8.93;4.67;;;;;;;;;;5073694;28;20438;-82
2021/12/13 07:41:52;;;;;;;8.37;3.63;;;;;;;;;;5072482;28;20684;-82
2021/12/13 07:44:44;;;;;;;6.80;4.47;;;;;;;;;;5073403;28;20990;-82
2021/12/13 07:47:19;;;;;;;6.53;3.13;;;;;;;;;;5067742;28;20406;-81
2021/12/13 07:49:47;;;;;;;9.50;4.53;;;;;;;;;;5071654;28;20403;-82
2021/12/13 07:52:24;;;;;;;6.80;3.57;;;;;;;;;;5073772;28;20410;-82
2021/12/13 07:54:50;;;;;;;5.30;3.40;;;;;;;;;;5073254;28;20430;-82
2021/12/13 07:57:20;;;;;;;7.23;3.63;;;;;;;;;;5071590;28;20411;-82
2021/12/13 07:59:47;;;;;;;6.00;2.90;;;;;;;;;;5073244;28;20910;-82
2021/12/13 08:02:17;;;;;;;6.67;3.40;;;;;;;;;;5072417;28;20450;-81
2021/12/13 08:04:46;;;;;;;5.60;3.30;;;;;;;;;;5072980;28;20828;-82
2021/12/13 08:07:14;;;;;;;4.30;2.87;;;;;;;;;;5071554;28;20438;-84
2021/12/13 08:09:42;;;;;;;5.70;3.57;;;;;;;;;;5073496;28;20411;-82
2021/12/13 08:12:14;;;;;;;6.80;3.03;;;;;;;;;;5071965;28;20414;-83
2021/12/13 08:14:41;;;;;;;4.67;3.10;;;;;;;;;;5073536;28;20426;-84
2021/12/13 08:17:16;;;;;;;5.47;3.17;;;;;;;;;;5073906;28;20403;-83
2021/12/13 08:19:44;;;;;;;6.80;3.40;;;;;;;;;;5072183;28;20444;-84
2021/12/13 08:22:15;;;;;;;6.53;3.40;;;;;;;;;;5073507;28;20549;-82
2021/12/13 08:24:44;;;;;;;5.30;3.40;;;;;;;;;;5072752;28;20469;-82
2021/12/13 08:27:12;;;;;;;5.90;2.80;;;;;;;;;;5072456;28;20455;-83
2021/12/13 08:29:39;;;;;;;4.47;3.20;;;;;;;;;;5073197;28;20468;-83
2021/12/13 08:32:08;;;;;;;5.93;3.27;;;;;;;;;;5071634;28;20913;-81
2021/12/13 08:34:36;;;;;;;5.20;3.47;;;;;;;;;;5072759;28;20438;-81
2021/12/13 08:37:12;;;;;;;5.00;3.10;;;;;;;;;;5072771;28;20399;-81
2021/12/13 08:39:38;;;;;;;4.13;2.73;;;;;;;;;;5071305;28;20432;-81
2021/12/13 08:42:09;;;;;;;4.77;2.90;;;;;;;;;;5075498;28;20483;-83
2021/12/13 08:44:41;;;;;;;4.63;2.60;;;;;;;;;;5076718;28;20956;-81
2021/12/13 08:47:11;;;;;;;6.90;3.30;;;;;;;;;;5075152;28;20407;-82
2021/12/13 08:49:39;;;;;;;4.77;2.70;;;;;;;;;;5077216;28;20501;-84
2021/12/13 08:52:14;;;;;;;3.87;2.67;;;;;;;;;;5077616;28;20402;-82
2021/12/13 08:54:51;;;;;;;11.27;3.03;;;;;;;;;;5077029;28;20426;-82
2021/12/13 08:57:26;;;;;;;4.97;2.90;;;;;;;;;;5075473;28;20428;-84
2021/12/13 08:59:53;;;;;;;3.50;2.07;;;;;;;;;;5075336;28;20485;-82
2021/12/13 09:02:20;;;;;;;4.37;2.87;;;;;;;;;;5076814;28;20461;-83
2021/12/13 09:05:00;;;;;;;3.40;2.03;;;;;;;;;;5075146;28;20434;-82
2021/12/13 09:07:27;;;;;;;2.40;1.83;;;;;;;;;;5074242;28;20774;-82
2021/12/13 09:09:54;;;;;;;4.97;3.20;;;;;;;;;;5075952;28;20407;-82
2021/12/13 09:12:36;;;;;;;4.80;2.60;;;;;;;;;;5076498;28;20410;-83
2021/12/13 09:15:06;;;;;;;6.73;2.13;;;;;;;;;;5074808;28;20801;-82
2021/12/13 09:17:32;;;;;;;3.70;2.20;;;;;;;;;;5073486;28;20410;-82
2021/12/13 09:20:01;;;;;;;3.43;1.83;;;;;;;;;;5075924;28;20456;-81
2021/12/13 09:22:35;;;;;;;5.53;2.43;;;;;;;;;;5074898;28;20418;-81
2021/12/13 09:25:08;;;;;;;3.67;2.30;;;;;;;;;;5074882;28;20445;-85
2021/12/13 09:27:40;;;;;;;5.43;2.50;;;;;;;;;;5075652;28;20403;-84
2021/12/13 09:30:12;;;;;;;3.07;1.77;;;;;;;;;;5075884;28;20925;-83
2021/12/13 09:32:45;;;;;;;1.70;1.10;;;;;;;;;;5076537;28;20406;-83
2021/12/13 09:35:16;;;;;;;3.07;1.30;;;;;;;;;;5077239;28;20885;-83
2021/12/13 09:37:42;;;;;;;1.77;1.17;;;;;;;;;;5075546;28;20413;-85
2021/12/13 09:40:09;;;;;;;1.83;1.13;;;;;;;;;;5074677;28;20844;-84
2021/12/13 09:42:44;;;;;;;2.03;1.13;;;;;;;;;;5074533;28;20453;-83
2021/12/13 09:45:12;;;;;;;2.23;1.27;;;;;;;;;;5074728;28;20434;-84
2021/12/13 09:47:40;;;;;;;2.10;1.00;;;;;;;;;;5075103;28;20494;-86
2021/12/13 09:50:12;;;;;;;4.70;1.13;;;;;;;;;;5074686;28;20851;-83
2021/12/13 09:52:42;;;;;;;1.43;0.97;;;;;;;;;;5075925;28;20403;-84
2021/12/13 09:55:12;;;;;;;1.90;1.13;;;;;;;;;;5074768;28;20423;-86
2021/12/13 09:57:50;;;;;;;1.70;1.20;;;;;;;;;;5075136;28;20422;-84
2021/12/13 10:00:22;;;;;;;2.07;1.10;;;;;;;;;;5075536;28;20793;-83
2021/12/13 10:02:50;;;;;;;2.07;1.20;;;;;;;;;;5074613;28;20461;-84
2021/12/13 10:05:21;;;;;;;1.47;0.80;;;;;;;;;;5074507;28;20946;-83
2021/12/13 10:07:50;;;;;;;1.50;0.93;;;;;;;;;;5074752;28;20478;-86
2021/12/13 10:10:19;;;;;;;1.43;0.90;;;;;;;;;;5074332;28;20821;-83
2021/12/13 10:12:47;;;;;;;1.97;1.30;;;;;;;;;;5074936;28;20729;-84
2021/12/13 10:15:16;;;;;;;1.70;0.80;;;;;;;;;;5074291;28;20466;-83
2021/12/13 10:17:44;;;;;;;1.33;0.90;;;;;;;;;;5074049;28;20490;-83
2021/12/13 10:20:18;;;;;;;2.00;1.17;;;;;;;;;;5075281;28;20951;-83
2021/12/13 10:22:45;;;;;;;1.77;1.10;;;;;;;;;;5074631;28;20781;-83
2021/12/13 10:25:15;;;;;;;1.50;0.90;;;;;;;;;;5090798;22;20535;-65
2021/12/13 10:27:42;;;;;;;2.00;1.20;;;;;;;;;;5076692;28;20433;-68
2021/12/13 10:30:11;;;;;;;1.33;0.80;;;;;;;;;;5076327;28;20821;-69
2021/12/13 10:32:38;;;;;;;2.23;1.30;;;;;;;;;;5076706;28;20436;-67
2021/12/13 10:35:10;;;;;;;2.13;1.27;;;;;;;;;;5076477;28;20394;-71
2021/12/13 10:37:42;;;;;;;4.07;1.23;;;;;;;;;;5076463;28;20422;-69
2021/12/13 10:40:14;;;;;;;2.93;1.20;;;;;;;;;;5075854;28;20398;-66
2021/12/13 10:42:43;;;;;;;1.57;1.10;;;;;;;;;;5076136;28;20444;-66
2021/12/13 10:45:25;;;;;;;1.67;1.10;;;;;;;;;;5076343;28;20488;-67
2021/12/13 10:47:52;;;;;;;2.07;1.10;;;;;;;;;;5076309;28;20439;-66
2021/12/13 10:50:21;;;;;;;1.87;1.10;;;;;;;;;;5076058;28;20429;-67
2021/12/13 10:52:48;;;;;;;1.97;1.00;;;;;;;;;;5076248;28;20732;-66
2021/12/13 10:55:19;;;;;;;1.70;1.10;;;;;;;;;;5074522;28;20413;-65
2021/12/13 10:57:48;;;;;;;1.30;1.00;;;;;;;;;;5076131;28;20441;-65
2021/12/13 11:00:17;;;;;;;1.50;0.93;;;;;;;;;;5075280;28;20414;-67
2021/12/13 11:02:43;;;;;;;2.00;1.07;;;;;;;;;;5075329;28;20418;-67
2021/12/13 11:05:11;;;;;;;4.93;1.40;;;;;;;;;;5074802;28;20409;-68
2021/12/13 11:07:38;;;;;;;1.60;1.00;;;;;;;;;;5075865;28;20432;-66
2021/12/13 11:10:05;;;;;;;1.50;0.87;;;;;;;;;;5075701;28;20406;-68
2021/12/13 11:12:33;;;;;;;1.70;1.00;;;;;;;;;;5075469;28;20419;-67
2021/12/13 11:15:02;;;;;;;1.17;0.90;;;;;;;;;;5075216;28;20414;-66
2021/12/13 11:17:29;;;;;;;2.20;1.33;;;;;;;;;;5075554;28;20437;-65
2021/12/13 11:19:57;;;;;;;1.37;0.80;;;;;;;;;;5075228;28;20418;-66
2021/12/13 11:22:28;;;;;;;1.90;1.20;;;;;;;;;;5075054;28;20445;-66
2021/12/13 11:24:56;;;;;;;2.00;1.10;;;;;;;;;;5075021;28;20433;-65
2021/12/13 11:27:24;;;;;;;1.87;0.97;;;;;;;;;;5074906;28;20442;-66
2021/12/13 11:29:50;;;;;;;2.50;1.30;;;;;;;;;;5075118;28;20414;-66
2021/12/13 11:32:35;;;;;;;1.80;1.10;;;;;;;;;;5075325;28;20463;-66
2021/12/13 11:35:19;;;;;;;1.80;0.97;;;;;;;;;;5075040;28;20913;-67
2021/12/13 11:38:20;;;;;;;2.30;1.20;;;;;;;;;;5074892;28;20465;-66
2021/12/13 11:41:05;;;;;;;1.70;1.03;;;;;;;;;;5041329;28;20448;-66
2021/12/13 11:43:44;;;;;;;1.20;0.90;;;;;;;;;;5070038;28;20908;-66
2021/12/13 11:46:29;;;;;;;14.20;2.63;;;;;;;;;;5075314;28;20485;-65
2021/12/13 11:49:14;;;;;;;4.20;2.80;;;;;;;;;;5075121;28;20430;-65
2021/12/13 11:51:46;;;;;;;6.23;2.60;;;;;;;;;;5074890;28;20893;-65
2021/12/13 11:54:12;;;;;;;5.70;2.43;;;;;;;;;;5075136;28;20410;-65
2021/12/13 11:56:56;;;;;;;4.47;2.30;;;;;;;;;;5075186;28;20413;-65
2021/12/13 11:59:36;;;;;;;8.70;2.60;;;;;;;;;;5074968;28;20410;-67
2021/12/13 12:02:02;;;;;;;8.57;2.70;;;;;;;;;;5075382;28;20453;-65
2021/12/13 12:04:47;;;;;;;5.47;2.60;;;;;;;;;;5075449;28;20414;-65
2021/12/13 12:07:13;;;;;;;4.83;2.53;;;;;;;;;;5075333;28;20426;-66
2021/12/13 12:09:51;;;;;;;5.60;2.27;;;;;;;;;;5075020;28;20434;-65
2021/12/13 12:12:17;;;;;;;3.73;2.00;;;;;;;;;;5075558;28;20406;-65
2021/12/13 12:14:44;;;;;;;6.07;2.93;;;;;;;;;;5075132;28;20434;-66
2021/12/13 12:17:11;;;;;;;9.80;2.43;;;;;;;;;;5077995;28;20442;-66
2021/12/13 12:19:42;;;;;;;5.87;2.07;;;;;;;;;;5078718;28;20439;-66
2021/12/13 12:22:18;;;;;;;7.00;2.97;;;;;;;;;;5079043;28;20947;-65
2021/12/13 12:24:49;;;;;;;6.87;2.70;;;;;;;;;;5079009;28;20489;-66
2021/12/13 12:27:18;;;;;;;6.77;3.30;;;;;;;;;;5079117;28;20456;-65
2021/12/13 12:29:55;;;;;;;3.93;2.23;;;;;;;;;;5078674;28;20410;-66
2021/12/13 12:32:24;;;;;;;7.07;2.90;;;;;;;;;;5078806;28;20476;-66
2021/12/13 12:34:53;;;;;;;4.23;2.60;;;;;;;;;;5078535;28;20435;-66
2021/12/13 12:37:25;;;;;;;6.43;2.80;;;;;;;;;;5078726;28;20437;-65
2021/12/13 12:40:09;;;;;;;2.90;1.83;;;;;;;;;;5078081;28;20406;-66
2021/12/13 12:42:38;;;;;;;3.93;2.10;;;;;;;;;;5078552;28;20508;-65
2021/12/13 12:45:09;;;;;;;4.20;2.47;;;;;;;;;;5078617;28;20493;-65
2021/12/13 12:47:35;;;;;;;6.47;2.73;;;;;;;;;;5078356;28;20462;-65
2021/12/13 12:50:12;;;;;;;4.20;2.20;;;;;;;;;;5077832;28;20901;-64
2021/12/13 12:52:48;;;;;;;6.13;2.33;;;;;;;;;;5078151;28;20412;-65
2021/12/13 12:55:17;;;;;;;3.70;2.50;;;;;;;;;;5078028;28;20781;-66
2021/12/13 12:57:43;;;;;;;3.17;2.00;;;;;;;;;;5077814;28;20414;-64
2021/12/13 13:00:10;;;;;;;2.53;1.20;;;;;;;;;;5095879;28;20398;-65
2021/12/13 13:02:36;;;;;;;7.17;1.37;;;;;;;;;;5078078;28;20455;-65
2021/12/13 13:05:05;;;;;;;6.40;1.33;;;;;;;;;;5077856;28;20406;-66
2021/12/13 13:07:33;;;;;;;1.53;1.07;;;;;;;;;;5078222;28;20745;-64
2021/12/13 13:10:01;;;;;;;2.37;1.27;;;;;;;;;;5077895;28;20414;-65
2021/12/13 13:12:30;;;;;;;1.83;1.00;;;;;;;;;;5078390;28;20817;-66
2021/12/13 13:14:56;;;;;;;2.40;1.10;;;;;;;;;;5078207;28;20406;-66
2021/12/13 13:17:28;;;;;;;10.80;1.23;;;;;;;;;;5077944;28;20445;-65
2021/12/13 13:19:55;;;;;;;1.70;1.20;;;;;;;;;;5077810;28;20402;-65
2021/12/13 13:22:30;;;;;;;3.17;1.43;;;;;;;;;;5077851;28;20496;-65
2021/12/13 13:25:17;;;;;;;4.20;1.20;;;;;;;;;;5077482;28;20440;-66
2021/12/13 13:27:43;;;;;;;1.73;1.10;;;;;;;;;;5077049;28;20901;-66
2021/12/13 13:30:16;;;;;;;3.00;1.23;;;;;;;;;;5077726;28;20406;-64
2021/12/13 13:32:42;;;;;;;2.70;1.40;;;;;;;;;;5077983;28;20877;-66
2021/12/13 13:35:08;;;;;;;2.87;1.10;;;;;;;;;;5077236;28;20410;-64
2021/12/13 13:37:37;;;;;;;1.80;1.20;;;;;;;;;;5095981;28;20841;-65
2021/12/13 13:40:07;;;;;;;2.90;1.33;;;;;;;;;;5077265;28;20848;-66
2021/12/13 13:42:35;;;;;;;1.50;1.10;;;;;;;;;;5077591;28;20429;-65
2021/12/13 13:45:08;;;;;;;2.13;1.37;;;;;;;;;;5077558;28;20442;-65
2021/12/13 13:47:34;;;;;;;1.53;1.10;;;;;;;;;;5077302;28;20441;-65
2021/12/13 13:50:17;;;;;;;2.67;1.40;;;;;;;;;;5077176;28;20425;-66
2021/12/13 13:52:44;;;;;;;1.87;0.97;;;;;;;;;;5077417;28;20398;-65
2021/12/13 13:55:19;;;;;;;2.97;1.70;;;;;;;;;;5076679;28;20436;-64
2021/12/13 13:57:50;;;;;;;2.07;1.17;;;;;;;;;;5075481;28;20441;-65
2021/12/13 14:00:16;;;;;;;2.43;1.47;;;;;;;;;;5074501;28;20414;-65
2021/12/13 14:02:43;;;;;;;6.13;2.00;;;;;;;;;;5077341;28;20410;-64
2021/12/13 14:05:10;;;;;;;4.70;2.03;;;;;;;;;;5076366;28;20432;-66
2021/12/13 14:07:38;;;;;;;5.17;2.30;;;;;;;;;;5076949;28;20422;-65
2021/12/13 14:10:08;;;;;;;5.63;2.30;;;;;;;;;;5075503;28;20428;-66
2021/12/13 14:12:37;;;;;;;9.17;2.47;;;;;;;;;;5077171;28;20407;-66
2021/12/13 14:15:07;;;;;;;2.00;1.20;;;;;;;;;;5076881;28;20489;-66
2021/12/13 14:17:44;;;;;;;2.60;1.27;;;;;;;;;;5076953;28;20432;-66
2021/12/13 14:20:16;;;;;;;2.43;1.23;;;;;;;;;;5076461;28;20432;-66
2021/12/13 14:22:43;;;;;;;1.90;1.10;;;;;;;;;;5075811;28;20418;-66
2021/12/13 14:25:09;;;;;;;3.80;1.10;;;;;;;;;;5075572;28;20418;-66
2021/12/13 14:27:35;;;;;;;2.90;1.40;;;;;;;;;;5075559;28;20486;-66
2021/12/13 14:30:20;;;;;;;1.40;0.90;;;;;;;;;;5075603;28;20472;-66
2021/12/13 14:32:46;;;;;;;1.90;1.23;;;;;;;;;;5076184;28;20876;-66
2021/12/13 14:35:21;;;;;;;3.40;1.27;;;;;;;;;;5076049;28;20414;-66
2021/12/13 14:37:48;;;;;;;5.20;1.20;;;;;;;;;;5076528;28;20429;-66
2021/12/13 14:40:15;;;;;;;1.67;1.00;;;;;;;;;;5076063;28;20414;-66
2021/12/13 14:42:41;;;;;;;1.93;1.00;;;;;;;;;;5076713;28;20847;-66
2021/12/13 14:45:10;;;;;;;1.20;0.90;;;;;;;;;;5076485;28;20924;-66
2021/12/13 14:47:56;;;;;;;3.93;1.10;;;;;;;;;;5076375;28;20426;-66
2021/12/13 14:50:25;;;;;;;7.43;1.00;;;;;;;;;;5076229;28;20406;-66
2021/12/13 14:52:54;;;;;;;1.90;1.10;;;;;;;;;;5076377;28;20406;-66
2021/12/13 14:55:24;;;;;;;3.30;1.30;;;;;;;;;;5076415;28;20500;-66
2021/12/13 14:58:04;;;;;;;1.77;1.00;;;;;;;;;;5076175;28;20418;-66
2021/12/13 15:00:33;;;;;;;3.17;0.93;;;;;;;;;;5075439;28;20418;-65
2021/12/13 15:03:05;;;;;;;1.20;0.90;;;;;;;;;;5076008;28;20418;-65
2021/12/13 15:05:36;;;;;;;2.77;1.37;;;;;;;;;;5075803;28;20489;-66
2021/12/13 15:08:04;;;;;;;1.40;0.90;;;;;;;;;;5075926;28;20430;-65
2021/12/13 15:10:34;;;;;;;2.80;1.57;;;;;;;;;;5075579;28;20409;-64